Time;durP1;ratioP1;P1;durP2;ratioP2;P2;SDS_P1;SDS_P2;PMS_P1;PMS_P2;Temp;Humidity;BMP_temperature;BMP_pressure;BME280_temperature;BME280_humidity;BME280_pressure;Samples;Min_cycle;Max_cycle;Signal;HPM_P1;HPM_P2
2023/03/21 00:00:42;;;;;;;60.55;33.90;;;7.60;99.90;;;;;;5116677;28;20019;-77
2023/03/21 00:03:08;;;;;;;60.53;34.40;;;7.50;99.90;;;;;;5116650;28;20034;-77
2023/03/21 00:05:38;;;;;;;61.50;34.50;;;7.50;99.90;;;;;;5102767;28;20024;-77
2023/03/21 00:08:03;;;;;;;60.33;33.40;;;7.50;99.90;;;;;;5094873;28;20035;-78
2023/03/21 00:10:29;;;;;;;63.17;34.10;;;7.60;99.90;;;;;;5096206;28;20358;-80
2023/03/21 00:12:57;;;;;;;56.38;32.85;;;7.60;99.90;;;;;;5095346;28;20024;-79
2023/03/21 00:15:25;;;;;;;57.00;29.77;;;7.60;99.90;;;;;;5095919;28;20069;-77
2023/03/21 00:17:57;;;;;;;59.70;33.72;;;7.60;99.90;;;;;;5096824;28;20449;-79
2023/03/21 00:20:22;;;;;;;57.80;31.55;;;7.60;99.90;;;;;;5098015;28;20020;-78
2023/03/21 00:22:48;;;;;;;60.50;31.38;;;7.60;99.90;;;;;;5094582;28;20024;-77
2023/03/21 00:25:14;;;;;;;59.50;31.67;;;7.60;99.90;;;;;;5095913;28;20028;-77
2023/03/21 00:27:39;;;;;;;62.20;31.63;;;7.60;99.90;;;;;;5095040;28;20028;-79
2023/03/21 00:30:05;;;;;;;63.28;33.05;;;7.60;99.90;;;;;;5095925;28;20027;-79
2023/03/21 00:32:31;;;;;;;63.65;33.05;;;7.50;99.90;;;;;;5094314;28;20054;-79
2023/03/21 00:34:57;;;;;;;65.53;34.03;;;7.50;99.90;;;;;;5114771;28;20055;-79
2023/03/21 00:37:22;;;;;;;76.75;34.90;;;7.50;99.90;;;;;;5114888;28;20028;-78
2023/03/21 00:39:48;;;;;;;68.43;34.50;;;7.50;99.90;;;;;;5101246;28;20542;-79
2023/03/21 00:42:15;;;;;;;76.72;36.03;;;7.60;99.90;;;;;;5094360;28;20024;-82
2023/03/21 00:44:41;;;;;;;74.30;36.33;;;7.50;99.90;;;;;;5094389;28;20062;-82
2023/03/21 00:47:09;;;;;;;81.57;37.58;;;7.60;99.90;;;;;;5095327;28;20043;-79
2023/03/21 00:49:37;;;;;;;77.10;37.40;;;7.60;99.90;;;;;;5094416;28;20040;-80
2023/03/21 00:52:05;;;;;;;82.47;38.60;;;7.60;99.90;;;;;;5095322;28;20066;-81
2023/03/21 00:54:35;;;;;;;81.47;37.65;;;7.50;99.90;;;;;;5095249;28;20024;-80
2023/03/21 00:57:02;;;;;;;78.82;39.42;;;7.50;99.90;;;;;;5094049;28;20385;-78
2023/03/21 00:59:28;;;;;;;75.90;38.88;;;7.50;99.90;;;;;;5093959;28;20024;-77
2023/03/21 01:01:54;;;;;;;80.85;39.75;;;7.60;99.90;;;;;;5093878;28;20051;-77
2023/03/21 01:04:25;;;;;;;73.82;37.10;;;7.60;99.90;;;;;;5095080;28;20020;-77
2023/03/21 01:06:52;;;;;;;80.30;37.08;;;7.50;99.90;;;;;;5095098;28;20028;-77
2023/03/21 01:09:20;;;;;;;74.05;38.65;;;7.50;99.90;;;;;;5094100;28;20485;-78
2023/03/21 01:11:47;;;;;;;77.25;39.85;;;7.60;99.90;;;;;;5093897;28;20025;-78
2023/03/21 01:14:15;;;;;;;79.15;36.92;;;7.50;99.90;;;;;;5093959;28;20030;-79
2023/03/21 01:16:40;;;;;;;79.65;37.78;;;7.60;99.90;;;;;;5094079;28;20424;-78
2023/03/21 01:19:07;;;;;;;76.60;35.88;;;7.60;99.90;;;;;;5095521;28;20024;-78
2023/03/21 01:21:34;;;;;;;76.45;35.88;;;7.50;99.90;;;;;;5093930;28;20017;-78
2023/03/21 01:24:00;;;;;;;72.35;35.53;;;7.50;99.90;;;;;;5093729;28;20017;-78
2023/03/21 01:26:26;;;;;;;74.35;35.63;;;7.50;99.90;;;;;;5094809;28;20016;-78
2023/03/21 01:28:52;;;;;;;75.90;36.65;;;7.50;99.90;;;;;;5094774;28;20043;-78
2023/03/21 01:31:18;;;;;;;81.57;37.45;;;7.50;99.90;;;;;;5093586;28;20020;-79
2023/03/21 01:33:44;;;;;;;71.78;35.75;;;7.50;99.90;;;;;;5094706;28;20099;-80
2023/03/21 01:36:20;;;;;;;82.93;39.33;;;7.50;99.90;;;;;;5093181;28;20058;-76
2023/03/21 01:38:46;;;;;;;72.35;35.97;;;7.50;99.90;;;;;;5093499;28;20053;-76
2023/03/21 01:41:31;;;;;;;68.68;33.97;;;7.50;99.90;;;;;;5094602;28;20052;-77
2023/03/21 01:43:57;;;;;;;60.13;33.28;;;7.50;99.90;;;;;;5094560;28;20049;-76
2023/03/21 01:46:41;;;;;;;61.70;30.95;;;7.50;99.90;;;;;;5094314;28;20376;-77
2023/03/21 01:49:27;;;;;;;55.28;29.92;;;7.50;99.90;;;;;;5092915;28;20043;-75
2023/03/21 01:51:57;;;;;;;56.92;28.67;;;7.50;99.90;;;;;;5094457;28;20020;-76
2023/03/21 01:54:28;;;;;;;59.35;28.10;;;7.50;99.90;;;;;;5094292;28;20382;-76
2023/03/21 01:56:56;;;;;;;55.53;27.27;;;7.40;99.90;;;;;;5091858;28;20522;-76
2023/03/21 01:59:45;;;;;;;53.35;26.38;;;7.40;99.90;;;;;;5094328;28;20436;-75
2023/03/21 02:02:16;;;;;;;53.45;27.83;;;7.40;99.90;;;;;;5092713;28;20362;-75
2023/03/21 02:04:54;;;;;;;50.97;26.23;;;7.50;99.90;;;;;;5092758;28;20079;-74
2023/03/21 02:07:28;;;;;;;52.90;27.25;;;7.40;99.90;;;;;;5093925;28;20442;-78
2023/03/21 02:09:55;;;;;;;53.42;26.95;;;7.40;99.90;;;;;;5092785;28;20054;-78
2023/03/21 02:12:20;;;;;;;55.47;28.55;;;7.50;99.90;;;;;;5092444;28;20020;-76
2023/03/21 02:14:48;;;;;;;55.25;27.73;;;7.50;99.90;;;;;;5092636;28;20012;-76
2023/03/21 02:17:35;;;;;;;56.47;29.15;;;7.50;99.90;;;;;;5092455;28;20031;-76
2023/03/21 02:20:20;;;;;;;58.85;29.73;;;7.50;99.90;;;;;;5093799;28;20114;-76
2023/03/21 02:23:24;;;;;;;51.67;27.42;;;7.40;99.90;;;;;;5092390;28;20553;-76
2023/03/21 02:25:52;;;;;;;57.63;27.30;;;7.50;99.90;;;;;;5092410;28;20024;-76
2023/03/21 02:28:21;;;;;;;48.70;26.90;;;7.50;99.90;;;;;;5093586;28;20439;-77
2023/03/21 02:31:00;;;;;;;51.08;27.08;;;7.50;99.90;;;;;;5092329;28;20028;-76
2023/03/21 02:33:46;;;;;;;51.05;27.23;;;7.60;99.90;;;;;;5093680;28;20365;-77
2023/03/21 02:36:21;;;;;;;49.25;24.30;;;7.60;99.90;;;;;;5089919;28;20431;-77
2023/03/21 02:38:51;;;;;;;45.75;23.30;;;7.60;99.90;;;;;;5092216;28;20024;-77
2023/03/21 02:41:24;;;;;;;44.92;24.20;;;7.50;99.90;;;;;;5093514;28;20431;-76
2023/03/21 02:44:05;;;;;;;40.70;23.00;;;7.50;99.90;;;;;;5093409;28;20044;-76
2023/03/21 02:46:38;;;;;;;46.40;23.77;;;7.50;99.90;;;;;;5093550;28;20016;-76
2023/03/21 02:49:21;;;;;;;43.67;24.45;;;7.50;99.90;;;;;;5093145;28;20036;-77
2023/03/21 02:51:48;;;;;;;50.08;24.98;;;7.50;99.90;;;;;;5092098;28;20025;-77
2023/03/21 02:54:18;;;;;;;43.70;24.52;;;7.60;99.90;;;;;;5093277;28;20063;-77
2023/03/21 02:56:45;;;;;;;48.53;23.75;;;7.50;99.90;;;;;;5092009;28;20024;-77
2023/03/21 02:59:13;;;;;;;45.42;22.95;;;7.60;99.90;;;;;;5091799;28;20159;-77
2023/03/21 03:01:39;;;;;;;46.65;24.45;;;7.60;99.90;;;;;;5093240;28;20024;-77
2023/03/21 03:04:20;;;;;;;46.00;22.27;;;7.60;99.90;;;;;;5093196;28;20445;-78
2023/03/21 03:06:59;;;;;;;42.65;22.17;;;7.60;99.90;;;;;;5093228;28;20388;-78
2023/03/21 03:09:43;;;;;;;41.63;22.80;;;7.60;99.90;;;;;;5091873;28;20036;-78
2023/03/21 03:12:30;;;;;;;40.53;21.70;;;7.60;99.90;;;;;;5091856;28;20504;-77
2023/03/21 03:15:03;;;;;;;38.67;21.27;;;7.60;99.90;;;;;;5091962;28;20381;-77
2023/03/21 03:17:29;;;;;;;43.20;23.98;;;7.60;99.90;;;;;;5093068;28;20020;-77
2023/03/21 03:20:10;;;;;;;48.42;22.92;;;7.60;99.90;;;;;;5092213;28;20028;-77
2023/03/21 03:23:16;;;;;;;45.42;22.95;;;7.60;99.90;;;;;;5092044;28;20066;-76
2023/03/21 03:25:49;;;;;;;43.30;21.60;;;7.50;99.90;;;;;;5091971;28;20031;-76
2023/03/21 03:28:20;;;;;;;46.97;23.70;;;7.50;99.90;;;;;;5091865;28;20472;-76
2023/03/21 03:30:48;;;;;;;44.88;23.63;;;7.50;99.90;;;;;;5091716;28;20038;-76
2023/03/21 03:33:15;;;;;;;40.45;21.98;;;7.40;99.90;;;;;;5092962;28;20024;-75
2023/03/21 03:35:43;;;;;;;45.95;24.13;;;7.50;99.90;;;;;;5092984;28;20420;-75
2023/03/21 03:38:11;;;;;;;46.75;23.55;;;7.50;99.90;;;;;;5092950;28;20032;-76
2023/03/21 03:40:45;;;;;;;42.95;22.35;;;7.50;99.90;;;;;;5093076;28;20137;-76
2023/03/21 03:43:17;;;;;;;42.53;23.20;;;7.40;99.90;;;;;;5091693;28;20028;-76
2023/03/21 03:45:48;;;;;;;38.97;23.08;;;7.50;99.90;;;;;;5091819;28;20025;-76
2023/03/21 03:48:21;;;;;;;47.85;22.77;;;7.40;99.90;;;;;;5092495;28;20048;-77
2023/03/21 03:50:53;;;;;;;49.25;25.55;;;7.40;99.90;;;;;;5091583;28;20477;-76
2023/03/21 03:53:24;;;;;;;;;;;7.40;99.90;;;;;;5093147;28;20111;-77
2023/03/21 03:55:51;;;;;;;48.95;22.60;;;7.40;99.90;;;;;;5092890;28;19915;-77
2023/03/21 03:58:19;;;;;;;55.28;25.08;;;7.40;99.90;;;;;;5092960;28;20073;-76
2023/03/21 04:00:45;;;;;;;48.08;23.67;;;7.40;99.90;;;;;;5092669;28;20045;-76
2023/03/21 04:03:11;;;;;;;44.85;23.52;;;7.40;99.90;;;;;;5094723;28;20469;-76
2023/03/21 04:05:37;;;;;;;45.65;24.83;;;7.40;99.90;;;;;;5096659;28;20066;-76
2023/03/21 04:08:03;;;;;;;51.75;23.58;;;7.40;99.90;;;;;;5096065;28;20036;-78
2023/03/21 04:10:28;;;;;;;45.80;23.95;;;7.40;99.90;;;;;;5096354;28;20108;-78
2023/03/21 04:12:54;;;;;;;51.72;24.45;;;7.40;99.90;;;;;;5094825;28;20480;-77
2023/03/21 04:15:20;;;;;;;48.35;24.55;;;7.40;99.90;;;;;;5094796;28;20024;-77
2023/03/21 04:17:46;;;;;;;52.95;26.20;;;7.30;99.90;;;;;;5094758;28;20016;-76
2023/03/21 04:20:11;;;;;;;55.75;26.45;;;7.30;99.90;;;;;;5095875;28;20115;-77
2023/03/21 04:22:37;;;;;;;45.42;24.30;;;7.30;99.90;;;;;;5095808;28;20017;-76
2023/03/21 04:25:04;;;;;;;51.67;26.05;;;7.30;99.90;;;;;;5095825;28;20024;-77
2023/03/21 04:27:31;;;;;;;48.33;24.67;;;7.30;99.90;;;;;;5095657;28;20024;-77
2023/03/21 04:29:57;;;;;;;52.10;25.33;;;7.30;99.90;;;;;;5095823;28;20427;-76
2023/03/21 04:32:25;;;;;;;57.95;28.27;;;7.30;99.90;;;;;;5094512;28;20103;-77
2023/03/21 04:34:52;;;;;;;53.45;27.05;;;7.30;99.90;;;;;;5094394;28;20452;-76
2023/03/21 04:37:19;;;;;;;57.35;27.67;;;7.30;99.90;;;;;;5094271;28;20020;-76
2023/03/21 04:39:46;;;;;;;62.65;26.85;;;7.30;99.90;;;;;;5104993;28;20034;-78
2023/03/21 04:42:17;;;;;;;60.83;27.42;;;7.20;99.90;;;;;;5116002;28;20045;-76
2023/03/21 04:44:46;;;;;;;57.03;26.08;;;7.20;99.90;;;;;;5114712;28;20388;-76
2023/03/21 04:47:14;;;;;;;57.35;26.73;;;7.20;99.90;;;;;;5115599;28;20080;-78
2023/03/21 04:49:41;;;;;;;55.55;27.05;;;7.20;99.90;;;;;;5115723;28;20059;-76
2023/03/21 04:52:07;;;;;;;53.83;28.10;;;7.10;99.90;;;;;;5114460;28;20019;-78
2023/03/21 04:54:33;;;;;;;50.53;23.48;;;7.10;99.90;;;;;;5114505;28;20110;-77
2023/03/21 04:56:58;;;;;;;53.33;24.58;;;7.10;99.90;;;;;;5114652;28;20431;-78
2023/03/21 04:59:25;;;;;;;54.08;25.70;;;7.10;99.90;;;;;;5113849;28;20073;-78
2023/03/21 05:01:50;;;;;;;53.20;24.58;;;7.00;99.90;;;;;;5095229;28;20474;-78
2023/03/21 05:04:17;;;;;;;51.80;24.45;;;7.00;99.90;;;;;;5095151;28;20031;-76
2023/03/21 05:06:44;;;;;;;56.35;25.35;;;7.00;99.90;;;;;;5093809;28;20111;-78
2023/03/21 05:09:11;;;;;;;55.33;24.65;;;7.00;99.90;;;;;;5093578;28;20094;-76
2023/03/21 05:11:39;;;;;;;55.58;26.27;;;7.00;99.90;;;;;;5095022;28;20046;-77
2023/03/21 05:14:06;;;;;;;60.05;26.08;;;7.00;99.90;;;;;;5094568;28;20100;-76
2023/03/21 05:16:33;;;;;;;59.65;25.42;;;7.00;99.90;;;;;;5095026;28;20020;-76
2023/03/21 05:19:03;;;;;;;55.78;25.02;;;7.00;99.90;;;;;;5079642;28;20017;-82
2023/03/21 05:21:40;;;;;;;55.05;25.23;;;7.00;99.90;;;;;;5107160;28;20027;-78
2023/03/21 05:24:10;;;;;;;57.20;24.80;;;7.10;99.90;;;;;;5114749;28;20020;-78
2023/03/21 05:26:37;;;;;;;58.00;24.55;;;7.10;99.90;;;;;;5113557;28;20015;-78
2023/03/21 05:29:03;;;;;;;57.13;26.02;;;7.10;99.90;;;;;;5113655;28;20492;-78
2023/03/21 05:31:29;;;;;;;60.58;27.48;;;7.10;99.90;;;;;;5114804;28;20027;-78
2023/03/21 05:33:55;;;;;;;55.58;26.55;;;7.10;99.90;;;;;;5113047;28;20031;-78
2023/03/21 05:36:20;;;;;;;61.42;28.45;;;7.10;99.90;;;;;;5114388;28;20019;-78
2023/03/21 05:38:46;;;;;;;53.05;25.77;;;7.10;99.90;;;;;;5114483;28;20020;-78
2023/03/21 05:41:16;;;;;;;60.20;27.00;;;7.20;99.90;;;;;;5113038;28;20062;-81
2023/03/21 05:43:42;;;;;;;63.08;27.77;;;7.30;99.90;;;;;;5113244;28;20026;-81
2023/03/21 05:46:08;;;;;;;63.78;29.38;;;7.20;99.90;;;;;;5114460;28;20019;-81
2023/03/21 05:48:34;;;;;;;62.25;27.85;;;7.30;99.90;;;;;;5104199;28;20056;-80
2023/03/21 05:51:01;;;;;;;65.90;29.35;;;7.30;99.90;;;;;;5092454;28;20027;-81
2023/03/21 05:53:26;;;;;;;68.95;27.98;;;7.30;99.90;;;;;;5092936;28;20107;-77
2023/03/21 05:55:52;;;;;;;68.95;29.63;;;7.30;99.90;;;;;;5101243;28;20121;-76
2023/03/21 05:58:18;;;;;;;72.10;29.58;;;7.30;99.90;;;;;;5098650;28;20024;-79
2023/03/21 06:00:44;;;;;;;68.30;29.30;;;7.30;99.90;;;;;;5105055;28;20031;-79
2023/03/21 06:03:10;;;;;;;75.05;30.63;;;7.40;99.90;;;;;;5114192;28;20076;-77
2023/03/21 06:05:35;;;;;;;70.55;30.67;;;7.40;99.90;;;;;;5113898;28;20024;-77
2023/03/21 06:08:01;;;;;;;77.25;32.65;;;7.30;99.90;;;;;;5112443;28;20032;-76
2023/03/21 06:10:27;;;;;;;68.80;31.65;;;7.30;99.90;;;;;;5092626;28;20022;-76
2023/03/21 06:12:52;;;;;;;75.30;31.38;;;7.30;99.90;;;;;;5093697;28;20020;-77
2023/03/21 06:15:18;;;;;;;80.88;34.55;;;7.30;99.90;;;;;;5092339;28;20021;-78
2023/03/21 06:17:44;;;;;;;80.75;35.33;;;7.30;99.90;;;;;;5093497;28;20020;-80
2023/03/21 06:20:10;;;;;;;89.05;36.40;;;7.30;99.90;;;;;;5092887;28;20480;-79
2023/03/21 06:22:36;;;;;;;79.93;36.08;;;7.30;99.90;;;;;;5092158;28;20027;-80
2023/03/21 06:25:03;;;;;;;88.90;35.80;;;7.30;99.90;;;;;;5101000;28;20028;-80
2023/03/21 06:27:28;;;;;;;84.97;35.40;;;7.30;99.90;;;;;;5108327;28;20019;-77
2023/03/21 06:29:54;;;;;;;88.18;35.85;;;7.30;99.90;;;;;;5111653;28;20024;-77
2023/03/21 06:32:19;;;;;;;72.90;33.22;;;7.20;99.90;;;;;;5112389;28;20023;-77
2023/03/21 06:34:46;;;;;;;83.10;36.35;;;7.20;99.90;;;;;;5101147;28;20012;-77
2023/03/21 06:37:11;;;;;;;96.30;39.17;;;7.20;99.90;;;;;;5094047;28;20015;-79
2023/03/21 06:39:37;;;;;;;88.97;36.42;;;7.30;99.90;;;;;;5091677;28;20012;-80
2023/03/21 06:42:03;;;;;;;81.57;36.42;;;7.30;99.90;;;;;;5101409;28;20031;-76
2023/03/21 06:44:29;;;;;;;82.13;37.38;;;7.30;99.90;;;;;;5093101;28;20024;-78
2023/03/21 06:46:55;;;;;;;86.18;37.63;;;7.30;99.90;;;;;;5091596;28;20504;-78
2023/03/21 06:49:20;;;;;;;82.63;36.72;;;7.30;99.90;;;;;;5091330;28;20122;-78
2023/03/21 06:51:46;;;;;;;77.45;38.15;;;7.40;99.90;;;;;;5093258;28;20016;-77
2023/03/21 06:54:13;;;;;;;84.32;34.60;;;7.30;99.90;;;;;;5093138;28;20051;-77
2023/03/21 06:56:40;;;;;;;72.55;30.67;;;7.40;99.90;;;;;;5091932;28;20067;-76
2023/03/21 06:59:07;;;;;;;64.30;30.13;;;7.40;99.90;;;;;;5091885;28;20112;-78
2023/03/21 07:01:32;;;;;;;69.65;32.83;;;7.50;99.90;;;;;;5091840;28;20020;-81
2023/03/21 07:03:58;;;;;;;66.43;30.20;;;7.50;99.90;;;;;;5089547;28;20020;-77
2023/03/21 07:06:27;;;;;;;70.75;32.15;;;7.60;99.90;;;;;;5100276;27;20036;-76
2023/03/21 07:08:54;;;;;;;58.13;29.65;;;7.60;99.90;;;;;;5094690;28;20042;-78
2023/03/21 07:11:21;;;;;;;67.63;30.80;;;7.70;99.90;;;;;;5108147;28;20031;-76
2023/03/21 07:13:47;;;;;;;75.07;31.58;;;7.70;99.90;;;;;;5110371;28;20103;-76
2023/03/21 07:16:14;;;;;;;65.68;29.30;;;7.80;99.90;;;;;;5100607;27;20138;-76
2023/03/21 07:18:40;;;;;;;59.88;29.70;;;7.80;99.90;;;;;;5098796;28;20028;-77
2023/03/21 07:21:06;;;;;;;60.33;29.10;;;7.80;99.90;;;;;;5098975;27;20059;-76
2023/03/21 07:23:33;;;;;;;66.45;30.70;;;7.90;99.90;;;;;;5097401;28;20058;-76
2023/03/21 07:26:00;;;;;;;64.50;28.80;;;7.90;99.90;;;;;;5098871;27;20034;-76
2023/03/21 07:28:26;;;;;;;64.45;29.40;;;7.90;99.90;;;;;;5098337;28;20473;-76
2023/03/21 07:30:55;;;;;;;55.58;28.15;;;7.90;99.90;;;;;;5099729;28;20036;-75
2023/03/21 07:33:22;;;;;;;66.43;28.73;;;7.90;99.90;;;;;;5096061;28;20058;-76
2023/03/21 07:35:49;;;;;;;59.03;28.90;;;8.00;99.90;;;;;;5090042;27;20044;-77
2023/03/21 07:38:15;;;;;;;69.30;33.90;;;8.00;99.90;;;;;;5091140;28;20017;-78
2023/03/21 07:40:41;;;;;;;64.55;31.05;;;8.10;99.90;;;;;;5092301;28;20036;-79
2023/03/21 07:43:07;;;;;;;60.10;26.83;;;8.10;99.90;;;;;;5092054;28;20021;-77
2023/03/21 07:45:32;;;;;;;50.75;24.45;;;8.20;99.90;;;;;;5091463;28;20044;-78
2023/03/21 07:47:58;;;;;;;52.08;25.27;;;8.20;99.90;;;;;;5092337;28;20048;-79
2023/03/21 07:50:23;;;;;;;53.85;24.52;;;8.30;99.90;;;;;;5094725;28;20375;-78
2023/03/21 07:52:49;;;;;;;47.67;25.95;;;8.30;99.90;;;;;;5102335;28;20020;-77
2023/03/21 07:55:16;;;;;;;50.85;23.80;;;8.30;99.90;;;;;;5101363;27;20102;-78
2023/03/21 07:57:42;;;;;;;46.85;22.30;;;8.40;99.90;;;;;;5094037;28;20058;-78
2023/03/21 08:00:09;;;;;;;36.30;17.77;;;8.50;99.90;;;;;;5093832;28;20051;-78
2023/03/21 08:02:35;;;;;;;39.53;19.60;;;8.50;99.90;;;;;;5094029;28;20027;-78
2023/03/21 08:05:02;;;;;;;33.97;16.48;;;8.60;99.90;;;;;;5109628;28;20496;-77
2023/03/21 08:07:29;;;;;;;31.45;17.23;;;8.50;99.90;;;;;;5107156;27;20060;-77
2023/03/21 08:09:55;;;;;;;25.48;13.88;;;8.50;99.90;;;;;;5104115;28;20040;-77
2023/03/21 08:12:21;;;;;;;29.33;14.95;;;8.40;99.90;;;;;;5103029;27;20066;-77
2023/03/21 08:14:46;;;;;;;29.38;14.52;;;8.50;99.90;;;;;;5094924;28;20054;-77
2023/03/21 08:17:12;;;;;;;24.85;14.00;;;8.50;99.90;;;;;;5095058;28;20064;-77
2023/03/21 08:19:38;;;;;;;24.17;13.50;;;8.60;99.90;;;;;;5094837;28;20024;-77
2023/03/21 08:22:05;;;;;;;23.35;13.48;;;8.60;99.90;;;;;;5092757;28;20485;-79
2023/03/21 08:24:32;;;;;;;28.45;13.57;;;8.60;99.90;;;;;;5093457;28;20028;-78
2023/03/21 08:26:59;;;;;;;28.20;13.93;;;8.60;99.90;;;;;;5097004;27;20501;-79
2023/03/21 08:29:25;;;;;;;27.48;14.48;;;8.70;99.90;;;;;;5109773;28;20423;-79
2023/03/21 08:31:51;;;;;;;28.05;14.65;;;8.70;99.90;;;;;;5110530;27;20019;-79
2023/03/21 08:34:18;;;;;;;33.35;16.65;;;8.70;99.90;;;;;;5097879;28;20422;-77
2023/03/21 08:36:43;;;;;;;27.27;15.43;;;8.70;99.90;;;;;;5093766;28;20024;-79
2023/03/21 08:39:09;;;;;;;32.47;15.95;;;8.70;99.90;;;;;;5098139;28;20388;-77
2023/03/21 08:41:36;;;;;;;32.67;16.60;;;8.70;99.90;;;;;;5106124;28;20042;-77
2023/03/21 08:44:03;;;;;;;31.65;16.08;;;8.70;99.90;;;;;;5102039;28;20055;-77
2023/03/21 08:46:29;;;;;;;32.30;15.65;;;8.70;99.90;;;;;;5102719;27;20035;-77
2023/03/21 08:48:55;;;;;;;31.90;17.27;;;8.80;99.90;;;;;;5091271;28;20048;-77
2023/03/21 08:51:20;;;;;;;30.00;16.30;;;8.90;99.90;;;;;;5093933;28;20109;-77
2023/03/21 08:53:49;;;;;;;29.52;16.50;;;8.90;99.90;;;;;;5100891;28;20028;-77
2023/03/21 08:56:15;;;;;;;39.67;19.95;;;9.00;99.90;;;;;;5102158;27;20046;-77
2023/03/21 08:58:41;;;;;;;63.28;33.17;;;9.00;99.90;;;;;;5096815;28;20106;-77
2023/03/21 09:01:10;;;;;;;44.50;23.05;;;9.10;99.90;;;;;;5111122;27;20053;-77
2023/03/21 09:03:37;;;;;;;105.65;51.92;;;9.00;99.90;;;;;;5104873;28;20065;-77
2023/03/21 09:06:03;;;;;;;47.78;24.67;;;9.10;99.90;;;;;;5093022;28;20028;-77
2023/03/21 09:08:29;;;;;;;28.48;16.40;;;9.20;99.90;;;;;;5093700;28;20040;-77
2023/03/21 09:10:55;;;;;;;65.35;30.08;;;9.10;99.90;;;;;;5093605;28;20020;-77
2023/03/21 09:13:21;;;;;;;65.38;30.02;;;9.30;99.90;;;;;;5092929;28;20111;-78
2023/03/21 09:15:47;;;;;;;41.80;21.52;;;9.40;99.90;;;;;;5099308;28;20055;-77
2023/03/21 09:18:14;;;;;;;27.20;15.57;;;9.40;99.90;;;;;;5100789;27;20067;-77
2023/03/21 09:20:43;;;;;;;26.42;15.57;;;9.30;99.90;;;;;;5100573;28;20448;-77
2023/03/21 09:23:10;;;;;;;44.22;24.35;;;9.20;99.90;;;;;;5105697;27;20036;-77
2023/03/21 09:25:37;;;;;;;39.33;20.73;;;9.20;99.90;;;;;;5084123;28;20542;-77
2023/03/21 09:28:04;;;;;;;48.97;26.25;;;9.20;99.90;;;;;;5100057;27;20051;-77
2023/03/21 09:30:31;;;;;;;30.63;17.60;;;9.30;99.90;;;;;;5099562;28;20700;-77
2023/03/21 09:33:02;;;;;;;27.15;16.13;;;9.10;99.90;;;;;;5102515;27;20030;-77
2023/03/21 09:35:28;;;;;;;41.58;24.40;;;9.00;99.90;;;;;;5100636;28;20070;-77
2023/03/21 09:37:58;;;;;;;31.90;17.67;;;9.10;99.90;;;;;;5100349;27;20047;-77
2023/03/21 09:40:42;;;;;;;28.88;17.30;;;9.20;99.90;;;;;;5100240;28;20615;-77
2023/03/21 09:43:22;;;;;;;33.85;18.05;;;9.10;99.90;;;;;;5107801;27;20031;-77
2023/03/21 09:45:59;;;;;;;32.08;18.38;;;9.10;99.90;;;;;;5096288;28;20036;-77
2023/03/21 09:48:39;;;;;;;36.33;19.63;;;9.20;99.90;;;;;;5106049;27;20052;-77
2023/03/21 09:51:11;;;;;;;29.40;16.88;;;9.00;99.90;;;;;;5100328;28;20012;-77
2023/03/21 09:53:40;;;;;;;27.55;17.20;;;8.90;99.90;;;;;;5097769;27;20024;-77
2023/03/21 09:56:11;;;;;;;35.63;19.13;;;8.80;99.90;;;;;;5101441;28;20070;-77
2023/03/21 09:58:42;;;;;;;30.40;16.83;;;8.80;99.90;;;;;;5104813;27;20089;-77
2023/03/21 10:01:20;;;;;;;37.50;19.27;;;8.90;99.90;;;;;;5096255;28;20477;-77
2023/03/21 10:03:52;;;;;;;31.75;18.30;;;8.90;99.90;;;;;;5079747;28;20024;-77
2023/03/21 10:06:18;;;;;;;29.95;16.73;;;9.00;99.90;;;;;;5095425;28;20481;-77
2023/03/21 10:08:48;;;;;;;32.13;17.08;;;9.00;99.90;;;;;;5106178;27;20038;-77
2023/03/21 10:11:20;;;;;;;31.98;18.05;;;9.00;99.90;;;;;;5099496;28;20020;-77
2023/03/21 10:13:58;;;;;;;35.67;17.85;;;9.00;99.90;;;;;;5093760;28;20031;-77
2023/03/21 10:16:33;;;;;;;31.63;17.73;;;8.90;99.90;;;;;;5103785;28;20473;-78
2023/03/21 10:19:01;;;;;;;32.20;19.48;;;8.60;99.90;;;;;;5100925;28;20035;-77
2023/03/21 10:21:28;;;;;;;50.13;29.85;;;8.50;99.90;;;;;;5093026;28;20107;-78
2023/03/21 10:23:56;;;;;;;107.47;59.72;;;8.40;99.90;;;;;;5091722;28;20485;-77
2023/03/21 10:26:26;;;;;;;35.53;19.55;;;8.40;99.90;;;;;;5098422;28;20524;-77
2023/03/21 10:28:54;;;;;;;67.70;34.65;;;8.50;99.90;;;;;;5099841;28;20055;-77
2023/03/21 10:31:24;;;;;;;45.75;25.38;;;8.50;99.90;;;;;;5102445;28;20027;-78
2023/03/21 10:33:52;;;;;;;116.85;63.00;;;8.40;99.90;;;;;;5100777;28;20054;-77
2023/03/21 10:36:24;;;;;;;75.13;46.38;;;8.40;99.90;;;;;;5105065;28;20019;-77
2023/03/21 10:39:13;;;;;;;162.50;103.97;;;8.40;99.90;;;;;;5105781;28;20028;-77
2023/03/21 10:41:39;;;;;;;52.78;28.60;;;8.40;99.90;;;;;;5089282;28;20115;-77
2023/03/21 10:44:15;;;;;;;65.00;35.85;;;8.40;99.90;;;;;;5090760;28;20120;-77
2023/03/21 10:46:55;;;;;;;155.82;92.72;;;8.50;99.90;;;;;;5104327;28;20077;-77
2023/03/21 10:49:21;;;;;;;46.97;25.85;;;8.80;99.90;;;;;;5097830;28;20122;-76
2023/03/21 10:51:52;;;;;;;46.08;25.27;;;8.80;99.90;;;;;;5101689;28;20034;-77
2023/03/21 10:54:21;;;;;;;40.22;20.17;;;9.00;99.90;;;;;;5106525;28;20030;-78
2023/03/21 10:56:59;;;;;;;193.43;104.60;;;8.90;99.90;;;;;;5106003;28;20028;-78
2023/03/21 10:59:28;;;;;;;80.15;43.47;;;9.10;99.90;;;;;;5096996;28;20023;-77
2023/03/21 11:01:55;;;;;;;101.43;55.42;;;9.20;99.90;;;;;;5101381;28;20020;-77
2023/03/21 11:04:25;;;;;;;84.30;45.97;;;9.30;99.90;;;;;;5099221;28;20544;-78
2023/03/21 11:07:01;;;;;;;44.60;25.52;;;9.40;99.90;;;;;;5113031;28;20020;-78
2023/03/21 11:09:57;;;;;;;241.02;129.50;;;9.50;99.90;;;;;;5111332;28;20392;-78
2023/03/21 11:12:32;;;;;;;132.40;69.95;;;9.50;99.90;;;;;;5114420;28;20029;-78
2023/03/21 11:15:23;;;;;;;190.40;96.72;;;9.50;99.90;;;;;;5114638;28;20403;-78
2023/03/21 11:17:49;;;;;;;334.02;165.93;;;9.40;99.90;;;;;;5115550;28;20428;-78
2023/03/21 11:20:17;;;;;;;377.27;202.13;;;9.50;99.90;;;;;;5114411;28;20030;-78
2023/03/21 11:22:44;;;;;;;90.75;46.22;;;9.60;99.90;;;;;;5114278;28;20472;-79
2023/03/21 11:25:26;;;;;;;60.72;33.92;;;9.60;99.90;;;;;;5115596;28;20026;-78
2023/03/21 11:27:55;;;;;;;62.78;34.10;;;9.60;99.90;;;;;;5116049;28;20016;-78
2023/03/21 11:30:25;;;;;;;39.95;23.42;;;9.50;99.90;;;;;;5117513;28;20045;-78
2023/03/21 11:32:57;;;;;;;55.08;28.75;;;9.50;99.90;;;;;;5116007;28;20027;-79
2023/03/21 11:35:27;;;;;;;41.30;22.77;;;9.60;99.90;;;;;;5116071;28;20016;-78
2023/03/21 11:37:54;;;;;;;61.58;37.20;;;9.60;99.90;;;;;;5117275;28;20020;-78
2023/03/21 11:40:26;;;;;;;34.83;22.25;;;9.80;99.90;;;;;;5117362;28;20020;-78
2023/03/21 11:42:56;;;;;;;33.20;19.92;;;9.80;99.90;;;;;;5117276;28;20422;-78
2023/03/21 11:45:25;;;;;;;34.08;22.70;;;9.80;99.90;;;;;;5117282;28;20020;-79
2023/03/21 11:47:53;;;;;;;39.65;24.00;;;9.80;99.90;;;;;;5116720;28;20082;-78
2023/03/21 11:50:25;;;;;;;31.60;20.08;;;9.80;99.90;;;;;;5115574;28;20030;-78
2023/03/21 11:53:25;;;;;;;27.67;17.63;;;9.80;99.90;;;;;;5115771;28;20036;-78
2023/03/21 11:55:56;;;;;;;34.13;20.73;;;9.80;99.90;;;;;;5115781;28;20034;-78
2023/03/21 11:58:37;;;;;;;52.70;35.30;;;9.80;99.90;;;;;;5117076;28;20019;-78
2023/03/21 12:01:11;;;;;;;64.55;43.03;;;9.90;99.90;;;;;;5115679;28;20027;-78
2023/03/21 12:03:45;;;;;;;52.65;33.42;;;9.90;99.90;;;;;;5116737;28;20012;-78
2023/03/21 12:06:25;;;;;;;40.15;26.45;;;9.90;99.90;;;;;;5115490;28;20019;-79
2023/03/21 12:09:11;;;;;;;47.60;33.97;;;9.90;99.90;;;;;;5115281;28;20040;-78
2023/03/21 12:12:08;;;;;;;35.55;22.80;;;9.80;99.90;;;;;;5115683;28;20024;-78
2023/03/21 12:15:11;;;;;;;43.47;29.23;;;9.70;99.90;;;;;;5116577;27;20031;-78
2023/03/21 12:17:43;;;;;;;;;;;9.70;99.90;;;;;;5115475;28;20024;-78
2023/03/21 12:20:28;;;;;;;30.85;17.58;;;9.70;99.90;;;;;;5116661;28;19911;-78
2023/03/21 12:23:19;;;;;;;33.88;23.17;;;9.70;99.90;;;;;;5114240;28;20354;-78
2023/03/21 12:25:47;;;;;;;30.15;17.48;;;9.60;99.90;;;;;;5115057;28;20051;-79
2023/03/21 12:28:15;;;;;;;72.85;33.75;;;9.50;99.90;;;;;;5114844;28;20080;-78
2023/03/21 12:31:14;;;;;;;30.92;18.88;;;9.40;99.90;;;;;;5115232;28;20489;-78
2023/03/21 12:33:55;;;;;;;106.18;47.70;;;9.30;99.90;;;;;;5114970;28;20031;-78
2023/03/21 12:36:29;;;;;;;88.78;41.70;;;9.40;99.90;;;;;;5116242;28;20027;-78
2023/03/21 12:39:14;;;;;;;67.40;33.08;;;9.40;99.90;;;;;;5111414;28;20435;-78
2023/03/21 12:41:52;;;;;;;66.78;30.52;;;9.50;99.90;;;;;;5094463;28;20438;-78
2023/03/21 12:44:24;;;;;;;82.50;37.47;;;9.40;99.90;;;;;;5094325;28;20031;-78
2023/03/21 12:46:58;;;;;;;105.90;45.47;;;9.30;99.90;;;;;;5095387;28;20028;-78
2023/03/21 12:49:42;;;;;;;147.88;61.90;;;9.30;99.90;;;;;;5094250;28;20446;-79